Time;durP1;ratioP1;P1;durP2;ratioP2;P2;SDS_P1;SDS_P2;PMS_P1;PMS_P2;Temp;Humidity;BMP_temperature;BMP_pressure;BME280_temperature;BME280_humidity;BME280_pressure;Samples;Min_cycle;Max_cycle;Signal;HPM_P1;HPM_P2
2021/01/22 00:01:04;;;;;;;2.47;1.00;;;;;;;7.39;nan;94509.75;4965419;28;20790;-67
2021/01/22 00:03:31;;;;;;;1.83;0.80;;;;;;;7.37;nan;94511.66;4969613;28;20684;-68
2021/01/22 00:05:58;;;;;;;1.50;0.80;;;;;;;7.35;nan;94508.41;4956918;28;20229;-68
2021/01/22 00:08:25;;;;;;;1.55;1.10;;;;;;;7.37;nan;94503.91;4961532;28;20650;-68
2021/01/22 00:10:52;;;;;;;1.42;1.27;;;;;;;7.35;nan;94492.88;4962131;28;20755;-67
2021/01/22 00:13:19;;;;;;;2.78;1.05;;;;;;;7.34;nan;94502.38;4961368;28;20212;-68
2021/01/22 00:15:46;;;;;;;0.90;0.70;;;;;;;7.42;nan;94494.00;4969563;28;20313;-68
2021/01/22 00:18:13;;;;;;;1.23;0.70;;;;;;;7.41;nan;94493.16;4965920;28;20617;-68
2021/01/22 00:20:40;;;;;;;1.90;1.00;;;;;;;7.41;nan;94487.16;4969504;28;20851;-69
2021/01/22 00:23:07;;;;;;;1.75;0.90;;;;;;;7.38;nan;94484.84;4962469;28;20692;-70
2021/01/22 00:25:34;;;;;;;1.15;0.70;;;;;;;7.38;nan;94474.47;4967761;28;20764;-68
2021/01/22 00:28:04;;;;;;;1.33;0.70;;;;;;;7.41;nan;94466.44;4966789;28;20213;-68
2021/01/22 00:30:31;;;;;;;1.10;0.93;;;;;;;7.46;nan;94462.56;4965295;28;20228;-69
2021/01/22 00:32:59;;;;;;;2.97;0.95;;;;;;;7.43;nan;94456.81;4961450;28;20595;-69
2021/01/22 00:35:26;;;;;;;1.30;0.85;;;;;;;7.54;nan;94451.53;4963678;28;20729;-68
2021/01/22 00:37:53;;;;;;;0.90;0.60;;;;;;;7.52;nan;94438.72;4970480;28;20253;-68
2021/01/22 00:40:20;;;;;;;1.52;1.20;;;;;;;7.49;nan;94422.63;4959767;28;20283;-71
2021/01/22 00:42:47;;;;;;;0.70;0.50;;;;;;;7.55;nan;94427.28;4959123;28;20289;-71
2021/01/22 00:45:15;;;;;;;1.52;0.88;;;;;;;7.50;nan;94403.59;4961481;28;20716;-70
2021/01/22 00:47:42;;;;;;;2.10;0.70;;;;;;;7.56;nan;94419.41;4959699;28;20394;-70
2021/01/22 00:50:10;;;;;;;3.25;0.82;;;;;;;7.54;nan;94400.59;4961915;28;20774;-69
2021/01/22 00:52:37;;;;;;;1.05;0.80;;;;;;;7.49;nan;94392.41;4963088;28;20237;-67
2021/01/22 00:55:04;;;;;;;1.15;0.88;;;;;;;7.43;nan;94395.50;4963772;28;20290;-69
2021/01/22 00:57:31;;;;;;;3.63;0.90;;;;;;;7.48;nan;94401.13;4962333;28;20294;-68
2021/01/22 00:59:58;;;;;;;2.55;0.63;;;;;;;7.47;nan;94403.84;4962927;28;20246;-70
2021/01/22 01:02:26;;;;;;;1.20;0.70;;;;;;;7.40;nan;94402.72;4967528;28;20206;-69
2021/01/22 01:04:53;;;;;;;1.00;0.70;;;;;;;7.37;nan;94423.69;4960976;28;20206;-69
2021/01/22 01:07:20;;;;;;;1.70;0.77;;;;;;;7.30;nan;94407.03;4967688;28;20281;-69
2021/01/22 01:09:46;;;;;;;1.17;0.70;;;;;;;7.11;nan;94378.47;4961947;28;20277;-68
2021/01/22 01:12:13;;;;;;;1.92;0.65;;;;;;;7.20;nan;94408.78;4969926;28;20281;-67
2021/01/22 01:14:42;;;;;;;0.70;0.57;;;;;;;7.14;nan;94399.75;4965629;28;20208;-68
2021/01/22 01:17:09;;;;;;;1.13;0.73;;;;;;;7.12;nan;94409.41;4963523;28;20771;-68
2021/01/22 01:19:37;;;;;;;1.60;0.70;;;;;;;7.18;nan;94405.47;4966036;28;20595;-70
2021/01/22 01:22:03;;;;;;;1.38;1.00;;;;;;;7.22;nan;94401.69;4965044;28;20619;-66
2021/01/22 01:24:30;;;;;;;1.73;0.75;;;;;;;7.26;nan;94400.47;4966017;28;20282;-68
2021/01/22 01:26:57;;;;;;;0.95;0.75;;;;;;;7.23;nan;94398.16;4962968;28;20234;-71
2021/01/22 01:29:24;;;;;;;2.20;1.00;;;;;;;7.25;nan;94410.03;4964390;28;20858;-69
2021/01/22 01:31:51;;;;;;;1.00;0.70;;;;;;;7.24;nan;94398.03;4958027;28;20240;-69
2021/01/22 01:34:18;;;;;;;2.53;0.77;;;;;;;7.23;nan;94398.97;4961726;28;20272;-72
2021/01/22 01:36:46;;;;;;;1.30;0.65;;;;;;;7.27;nan;94409.88;4965591;28;20845;-71
2021/01/22 01:39:13;;;;;;;1.17;0.88;;;;;;;7.19;nan;94400.19;4963634;28;20766;-71
2021/01/22 01:41:40;;;;;;;1.05;0.70;;;;;;;7.12;nan;94405.97;4958302;28;20780;-70
2021/01/22 01:44:07;;;;;;;2.38;0.73;;;;;;;7.14;nan;94398.94;4968699;28;20618;-69
2021/01/22 01:46:35;;;;;;;0.80;0.63;;;;;;;7.18;nan;94421.00;4957724;28;20257;-71
2021/01/22 01:49:02;;;;;;;2.13;0.63;;;;;;;7.18;nan;94400.28;4958211;28;20305;-70
2021/01/22 01:51:29;;;;;;;1.13;0.60;;;;;;;7.19;nan;94415.69;4958467;28;20623;-69
2021/01/22 01:53:57;;;;;;;1.60;0.75;;;;;;;7.20;nan;94411.34;4960599;28;20281;-69
2021/01/22 01:56:27;;;;;;;1.00;0.70;;;;;;;7.17;nan;94416.78;4961802;28;20742;-70
2021/01/22 01:58:57;;;;;;;1.67;0.60;;;;;;;7.17;nan;94412.44;4966458;28;20591;-69
2021/01/22 02:01:26;;;;;;;1.50;0.80;;;;;;;7.15;nan;94444.53;4955834;28;20649;-69
2021/01/22 02:03:54;;;;;;;1.42;0.70;;;;;;;7.18;nan;94423.59;4957691;28;20270;-69
2021/01/22 02:06:21;;;;;;;2.17;1.08;;;;;;;7.19;nan;94422.63;4964412;28;20296;-69
2021/01/22 02:08:47;;;;;;;1.02;0.60;;;;;;;7.28;nan;94412.34;4955083;28;20285;-69
2021/01/22 02:11:17;;;;;;;7.20;0.80;;;;;;;7.33;nan;94411.94;4957270;28;20225;-70
2021/01/22 02:13:50;;;;;;;2.25;0.80;;;;;;;7.38;nan;94420.16;4959465;28;20723;-69
2021/01/22 02:16:17;;;;;;;1.10;0.60;;;;;;;7.42;nan;94411.19;4966287;28;20312;-69
2021/01/22 02:18:45;;;;;;;2.35;0.80;;;;;;;7.39;nan;94426.97;4961917;28;20549;-71
2021/01/22 02:21:23;;;;;;;0.80;0.60;;;;;;;7.44;nan;94420.44;4961933;28;20320;-71
2021/01/22 02:23:51;;;;;;;2.40;1.30;;;;;;;7.49;nan;94431.22;4961977;28;20621;-68
2021/01/22 02:26:43;;;;;;;2.70;0.57;;;;;;;7.48;nan;94419.25;4952671;28;20258;-70
2021/01/22 02:29:11;;;;;;;1.10;0.60;;;;;;;7.46;nan;94418.56;4955875;28;20495;-70
2021/01/22 02:31:42;;;;;;;1.77;0.60;;;;;;;7.47;nan;94429.72;4958033;28;20776;-69
2021/01/22 02:34:12;;;;;;;0.90;0.60;;;;;;;7.48;nan;94421.84;4958008;28;20194;-69
2021/01/22 02:36:42;;;;;;;3.35;0.68;;;;;;;7.55;nan;94425.53;4957091;28;20276;-68
2021/01/22 02:39:12;;;;;;;2.55;0.68;;;;;;;7.52;nan;94427.56;4957316;28;20277;-68
2021/01/22 02:41:41;;;;;;;3.95;0.88;;;;;;;7.58;nan;94430.44;4958252;28;20630;-70
2021/01/22 02:44:09;;;;;;;2.00;0.68;;;;;;;7.59;nan;94429.50;4963760;28;20648;-69
2021/01/22 02:46:36;;;;;;;1.98;0.80;;;;;;;7.64;nan;94431.72;4964484;28;20909;-69
2021/01/22 02:49:04;;;;;;;0.93;0.70;;;;;;;7.73;nan;94426.53;4962002;28;20579;-69
2021/01/22 02:51:32;;;;;;;4.20;0.77;;;;;;;7.78;nan;94419.22;4955310;28;20317;-69
2021/01/22 02:54:08;;;;;;;2.20;0.70;;;;;;;7.77;nan;94429.69;4961950;28;20248;-69
2021/01/22 02:56:46;;;;;;;6.57;0.95;;;;;;;7.79;nan;94438.16;4968743;28;20584;-68
2021/01/22 02:59:39;;;;;;;4.63;1.00;;;;;;;7.83;nan;94434.34;4969277;28;20280;-68
2021/01/22 03:02:13;;;;;;;2.90;0.98;;;;;;;7.82;nan;94430.13;4959194;28;20313;-68
2021/01/22 03:04:41;;;;;;;1.50;0.70;;;;;;;7.91;nan;94429.31;4958822;28;20202;-69
2021/01/22 03:07:11;;;;;;;5.35;1.13;;;;;;;7.92;nan;94436.13;4959694;28;20613;-68
2021/01/22 03:09:42;;;;;;;6.53;0.80;;;;;;;7.88;nan;94452.91;4957531;28;20237;-68
2021/01/22 03:12:16;;;;;;;3.50;0.80;;;;;;;7.94;nan;94439.44;4958595;28;20717;-68
2021/01/22 03:14:44;;;;;;;4.97;1.02;;;;;;;7.99;nan;94439.84;4956458;28;20304;-69
2021/01/22 03:17:11;;;;;;;6.03;0.85;;;;;;;8.02;nan;94434.41;4959775;28;20294;-68
2021/01/22 03:19:45;;;;;;;2.58;0.68;;;;;;;8.08;nan;94436.47;4956165;28;20544;-69
2021/01/22 03:22:13;;;;;;;7.63;1.02;;;;;;;8.05;nan;94421.19;4967395;28;20258;-70
2021/01/22 03:24:43;;;;;;;3.75;1.08;;;;;;;8.06;nan;94428.00;4959084;28;20281;-69
2021/01/22 03:27:10;;;;;;;5.85;1.10;;;;;;;7.99;nan;94403.56;4957727;28;20605;-69
2021/01/22 03:29:38;;;;;;;1.85;0.68;;;;;;;8.06;nan;94412.44;4962525;28;20600;-69
2021/01/22 03:32:06;;;;;;;5.63;0.70;;;;;;;8.10;nan;94419.81;4958499;28;20454;-69
2021/01/22 03:34:33;;;;;;;7.53;1.20;;;;;;;8.06;nan;94407.28;4960536;28;20914;-68
2021/01/22 03:37:02;;;;;;;0.80;0.60;;;;;;;8.17;nan;94407.97;4957796;28;20246;-68
2021/01/22 03:39:33;;;;;;;3.72;1.00;;;;;;;8.17;nan;94409.75;4958713;28;20614;-69
2021/01/22 03:42:00;;;;;;;4.00;0.60;;;;;;;8.21;nan;94408.56;4959915;28;20676;-68
2021/01/22 03:44:27;;;;;;;4.10;1.00;;;;;;;8.20;nan;94397.38;4957772;28;20886;-70
2021/01/22 03:46:55;;;;;;;6.37;1.30;;;;;;;8.18;nan;94407.84;4960288;28;21097;-68
2021/01/22 03:49:22;;;;;;;3.90;0.80;;;;;;;8.22;nan;94410.19;4957532;28;20938;-70
2021/01/22 03:51:49;;;;;;;4.20;0.80;;;;;;;8.18;nan;94422.56;4957947;28;20329;-69
2021/01/22 03:54:22;;;;;;;2.97;0.68;;;;;;;8.26;nan;94415.00;4962600;28;20456;-69
2021/01/22 03:56:49;;;;;;;12.00;1.75;;;;;;;8.33;nan;94422.06;4960221;28;20306;-67
2021/01/22 03:59:16;;;;;;;2.00;1.00;;;;;;;8.31;nan;94412.00;4959983;28;20708;-68
2021/01/22 04:01:43;;;;;;;2.55;0.90;;;;;;;8.28;nan;94411.28;4954617;28;21264;-68
2021/01/22 04:04:10;;;;;;;2.60;0.77;;;;;;;8.37;nan;94412.25;4957652;28;20302;-68
2021/01/22 04:06:38;;;;;;;2.97;1.00;;;;;;;8.32;nan;94423.03;4954236;28;20226;-68
2021/01/22 04:09:11;;;;;;;4.85;1.00;;;;;;;8.33;nan;94400.53;4961781;28;20811;-68
2021/01/22 04:11:38;;;;;;;12.43;1.03;;;;;;;8.33;nan;94395.38;4961895;28;20310;-69
2021/01/22 04:14:05;;;;;;;3.25;0.70;;;;;;;8.33;nan;94390.97;4974037;28;20930;-69
2021/01/22 04:16:31;;;;;;;4.53;0.90;;;;;;;8.34;nan;94387.44;4961988;28;20661;-70
2021/01/22 04:18:58;;;;;;;2.65;1.10;;;;;;;8.39;nan;94387.00;4957921;28;20493;-70
2021/01/22 04:21:26;;;;;;;1.30;1.00;;;;;;;8.32;nan;94381.56;4961903;28;20296;-69
2021/01/22 04:23:53;;;;;;;5.00;1.00;;;;;;;8.31;nan;94383.50;4956948;28;21149;-69
2021/01/22 04:26:20;;;;;;;2.70;1.07;;;;;;;8.27;nan;94389.88;4964050;28;20910;-70
2021/01/22 04:28:47;;;;;;;2.40;1.00;;;;;;;8.16;nan;94387.41;4957171;28;20982;-69
2021/01/22 04:31:13;;;;;;;2.30;0.80;;;;;;;7.97;nan;94400.31;4960454;28;20700;-69
2021/01/22 04:33:40;;;;;;;4.50;1.07;;;;;;;7.78;nan;94376.94;4962185;28;20580;-69
2021/01/22 04:36:13;;;;;;;6.25;1.00;;;;;;;7.66;nan;94370.25;4962766;28;20461;-71
2021/01/22 04:38:41;;;;;;;3.55;1.00;;;;;;;7.60;nan;94368.19;4961977;28;20313;-70
2021/01/22 04:41:08;;;;;;;3.47;0.82;;;;;;;7.48;nan;94359.72;4966521;28;20737;-71
2021/01/22 04:43:38;;;;;;;3.63;1.33;;;;;;;7.49;nan;94363.09;4963315;28;20650;-70
2021/01/22 04:46:06;;;;;;;1.95;0.82;;;;;;;7.49;nan;94356.19;4959566;28;20695;-69
2021/01/22 04:48:33;;;;;;;1.60;0.80;;;;;;;7.43;nan;94346.34;4958955;28;20298;-70
2021/01/22 04:51:00;;;;;;;9.02;1.00;;;;;;;7.42;nan;94342.13;4961096;28;20719;-68
2021/01/22 04:53:31;;;;;;;4.20;0.90;;;;;;;7.43;nan;94346.34;4958082;28;20293;-71
2021/01/22 04:56:00;;;;;;;8.85;1.17;;;;;;;7.47;nan;94352.91;4964125;28;20320;-69
2021/01/22 04:58:28;;;;;;;2.85;0.60;;;;;;;7.46;nan;94346.09;4959213;28;20848;-69
2021/01/22 05:00:55;;;;;;;1.90;1.05;;;;;;;7.41;nan;94331.91;4959720;28;20730;-71
2021/01/22 05:03:27;;;;;;;2.47;1.45;;;;;;;7.39;nan;94328.63;4964644;28;21025;-70
2021/01/22 05:05:56;;;;;;;2.22;0.73;;;;;;;7.42;nan;94330.97;4962538;28;20230;-69
2021/01/22 05:08:23;;;;;;;6.93;1.00;;;;;;;7.33;nan;94329.16;4958547;28;20629;-68
2021/01/22 05:10:50;;;;;;;3.75;1.10;;;;;;;7.40;nan;94325.09;4962093;28;20554;-69
2021/01/22 05:13:18;;;;;;;3.20;1.27;;;;;;;7.36;nan;94323.72;4966175;28;20232;-68
2021/01/22 05:16:09;;;;;;;5.78;1.00;;;;;;;7.29;nan;94327.78;4959065;28;20513;-69
2021/01/22 05:18:36;;;;;;;2.58;0.88;;;;;;;7.27;nan;94324.50;4964560;28;20399;-69
2021/01/22 05:21:07;;;;;;;5.18;1.13;;;;;;;7.20;nan;94333.75;4963723;28;20464;-71
2021/01/22 05:23:37;;;;;;;6.13;0.73;;;;;;;7.16;nan;94316.84;4963447;28;20750;-69
2021/01/22 05:26:14;;;;;;;3.85;0.80;;;;;;;7.12;nan;94330.97;4966110;28;20288;-69
2021/01/22 05:28:43;;;;;;;1.73;1.00;;;;;;;7.16;nan;94324.59;4966670;28;20539;-70
2021/01/22 05:31:11;;;;;;;3.22;0.90;;;;;;;7.12;nan;94331.81;4961234;28;20317;-70
2021/01/22 05:33:40;;;;;;;2.17;0.80;;;;;;;7.13;nan;94317.13;4957662;28;20297;-69
2021/01/22 05:36:33;;;;;;;3.10;1.13;;;;;;;7.16;nan;94314.25;4961771;28;20256;-70
2021/01/22 05:39:02;;;;;;;4.25;0.80;;;;;;;7.28;nan;94321.78;4959771;28;20225;-69
2021/01/22 05:41:29;;;;;;;2.67;1.83;;;;;;;7.33;nan;94316.22;4959118;28;20309;-71
2021/01/22 05:44:00;;;;;;;3.80;1.35;;;;;;;7.38;nan;94327.00;4963761;28;20688;-69
2021/01/22 05:46:28;;;;;;;2.72;1.25;;;;;;;7.43;nan;94327.44;4962127;28;20864;-71
2021/01/22 05:49:09;;;;;;;1.60;0.80;;;;;;;7.24;nan;94301.50;4964024;28;20285;-70
2021/01/22 05:51:36;;;;;;;2.42;0.95;;;;;;;7.34;nan;94323.03;4968662;28;20309;-70
2021/01/22 05:54:03;;;;;;;3.10;1.10;;;;;;;7.31;nan;94307.78;4959782;28;20686;-72
2021/01/22 05:56:30;;;;;;;1.63;0.63;;;;;;;7.30;nan;94303.56;4963850;28;20427;-72
2021/01/22 05:58:57;;;;;;;1.65;0.73;;;;;;;7.29;nan;94309.69;4957973;28;20202;-71
2021/01/22 06:01:28;;;;;;;3.38;0.90;;;;;;;7.22;nan;94295.63;4959428;28;20317;-72
2021/01/22 06:04:07;;;;;;;5.25;0.93;;;;;;;7.24;nan;94289.38;4964962;28;20647;-72
2021/01/22 06:06:34;;;;;;;4.20;1.17;;;;;;;7.19;nan;94288.94;4957480;28;20250;-72
2021/01/22 06:09:02;;;;;;;2.03;0.63;;;;;;;7.21;nan;94284.44;4958129;28;20261;-73
2021/01/22 06:11:30;;;;;;;4.43;0.90;;;;;;;7.16;nan;94288.41;4958376;28;20309;-72
2021/01/22 06:13:58;;;;;;;2.50;0.70;;;;;;;7.18;nan;94289.06;4964342;28;20230;-72
2021/01/22 06:16:27;;;;;;;1.75;0.88;;;;;;;7.11;nan;94273.28;4960037;28;20230;-72
2021/01/22 06:19:20;;;;;;;4.18;1.17;;;;;;;6.92;nan;94246.53;4964126;28;20225;-72
2021/01/22 06:21:58;;;;;;;5.68;0.80;;;;;;;7.16;nan;94290.97;4956692;28;20262;-72
2021/01/22 06:24:26;;;;;;;3.15;0.90;;;;;;;7.15;nan;94290.16;4960953;28;20285;-72
2021/01/22 06:26:55;;;;;;;1.88;0.80;;;;;;;6.97;nan;94260.69;4957789;28;20226;-72
2021/01/22 06:29:27;;;;;;;0.80;0.60;;;;;;;7.14;nan;94279.97;4958237;28;20226;-72
2021/01/22 06:31:56;;;;;;;2.92;1.05;;;;;;;7.11;nan;94272.44;4959200;28;20253;-72
2021/01/22 06:34:41;;;;;;;3.60;0.60;;;;;;;7.13;nan;94283.50;4955912;28;20206;-72
2021/01/22 06:37:09;;;;;;;0.70;0.57;;;;;;;6.99;nan;94278.69;4962940;28;20294;-72
2021/01/22 06:39:38;;;;;;;1.10;0.60;;;;;;;7.03;nan;94280.88;4960597;28;20680;-69
2021/01/22 06:42:06;;;;;;;1.45;0.70;;;;;;;6.99;nan;94295.00;4964121;28;20306;-70
2021/01/22 06:44:33;;;;;;;1.25;0.70;;;;;;;6.86;nan;94272.91;4961781;28;20309;-70
2021/01/22 06:47:10;;;;;;;1.75;0.60;;;;;;;6.93;nan;94289.53;4959504;28;20248;-70
2021/01/22 06:49:39;;;;;;;2.55;0.80;;;;;;;6.88;nan;94296.84;4954080;28;20202;-70
2021/01/22 06:52:10;;;;;;;2.30;0.82;;;;;;;6.83;nan;94299.84;4954000;28;20296;-70
2021/01/22 06:55:03;;;;;;;2.20;0.68;;;;;;;6.79;nan;94295.84;4964395;28;20708;-70
2021/01/22 06:57:31;;;;;;;1.83;0.70;;;;;;;6.76;nan;94297.88;4963987;28;20213;-72
2021/01/22 06:59:58;;;;;;;1.55;1.13;;;;;;;6.77;nan;94299.53;4958951;28;20563;-70
2021/01/22 07:02:38;;;;;;;2.28;0.82;;;;;;;6.74;nan;94298.03;4957319;28;20521;-69
2021/01/22 07:05:44;;;;;;;4.28;0.82;;;;;;;6.84;nan;94292.91;4961649;28;20230;-70
2021/01/22 07:08:12;;;;;;;3.25;0.85;;;;;;;6.85;nan;94299.72;4965970;28;20237;-70
2021/01/22 07:11:03;;;;;;;2.95;0.80;;;;;;;6.95;nan;94303.16;4966472;28;20307;-71
2021/01/22 07:13:35;;;;;;;1.40;0.77;;;;;;;6.98;nan;94311.47;4948948;28;20762;-70
2021/01/22 07:16:05;;;;;;;2.42;0.98;;;;;;;7.00;nan;94306.16;4961083;28;20941;-70
2021/01/22 07:18:42;;;;;;;1.70;0.73;;;;;;;7.00;nan;94306.97;4965080;28;20210;-71
2021/01/22 07:21:29;;;;;;;2.63;0.80;;;;;;;7.00;nan;94296.63;4957934;28;20230;-71
2021/01/22 07:23:57;;;;;;;1.63;0.88;;;;;;;7.04;nan;94292.84;4953267;28;20202;-70
2021/01/22 07:26:33;;;;;;;3.25;0.80;;;;;;;7.10;nan;94294.09;4968351;28;20262;-70
2021/01/22 07:29:21;;;;;;;0.80;0.50;;;;;;;7.16;nan;94319.44;4965626;28;20689;-69
2021/01/22 07:31:56;;;;;;;7.63;0.80;;;;;;;7.18;nan;94284.72;4964275;28;20262;-69
2021/01/22 07:34:46;;;;;;;2.63;0.98;;;;;;;7.27;nan;94286.53;4959226;28;20534;-69
2021/01/22 07:37:17;;;;;;;2.88;0.90;;;;;;;7.44;nan;94285.06;4967731;28;20250;-70
2021/01/22 07:39:45;;;;;;;1.90;0.60;;;;;;;7.91;nan;94279.13;4955637;28;20847;-70
2021/01/22 07:42:13;;;;;;;1.67;0.73;;;;;;;8.38;nan;94284.31;4963547;28;20582;-70
2021/01/22 07:44:42;;;;;;;2.35;0.60;;;;;;;8.56;nan;94280.06;4959761;28;20518;-70
2021/01/22 07:47:11;;;;;;;4.57;0.90;;;;;;;8.62;nan;94282.91;4964869;28;20322;-70
2021/01/22 07:49:53;;;;;;;3.83;1.10;;;;;;;8.48;nan;94282.53;4967729;28;20900;-69
2021/01/22 07:52:20;;;;;;;3.57;1.00;;;;;;;8.94;nan;94293.72;4960412;28;20485;-72
2021/01/22 07:54:50;;;;;;;6.78;0.70;;;;;;;9.25;nan;94308.09;4957841;28;20452;-70
2021/01/22 07:57:18;;;;;;;4.07;0.90;;;;;;;9.41;nan;94292.72;4967834;28;20589;-69
2021/01/22 07:59:45;;;;;;;1.90;0.77;;;;;;;9.52;nan;94294.28;4961483;28;20499;-69
2021/01/22 08:02:13;;;;;;;4.50;1.00;;;;;;;9.42;nan;94294.34;4960852;28;20560;-73
2021/01/22 08:04:41;;;;;;;5.17;1.00;;;;;;;9.66;nan;94297.19;4958483;28;20453;-70
2021/01/22 08:07:09;;;;;;;3.43;1.00;;;;;;;9.93;nan;94302.38;4958408;28;20512;-70
2021/01/22 08:09:36;;;;;;;3.13;0.70;;;;;;;10.41;nan;94308.06;4960949;28;20515;-69
2021/01/22 08:12:11;;;;;;;2.93;0.70;;;;;;;10.52;nan;94297.41;4961015;28;20977;-70
2021/01/22 08:14:38;;;;;;;2.10;0.80;;;;;;;10.42;nan;94304.47;4963268;28;20540;-69
2021/01/22 08:17:07;;;;;;;1.67;0.90;;;;;;;10.36;nan;94294.69;4963357;28;21182;-70
2021/01/22 08:19:34;;;;;;;4.23;1.00;;;;;;;10.65;nan;94287.41;4960480;28;20514;-69
2021/01/22 08:22:02;;;;;;;2.47;0.77;;;;;;;10.99;nan;94288.28;4959187;28;20575;-69
2021/01/22 08:24:30;;;;;;;7.90;2.43;;;;;;;11.20;nan;94285.31;4968795;28;20559;-69
2021/01/22 08:27:01;;;;;;;11.10;1.17;;;;;;;11.38;nan;94297.28;4963970;28;20466;-70
2021/01/22 08:29:35;;;;;;;1.30;0.80;;;;;;;11.52;nan;94307.13;4957810;28;20461;-69
2021/01/22 08:32:03;;;;;;;2.50;0.80;;;;;;;11.70;nan;94300.03;4960709;28;20858;-69
2021/01/22 08:34:33;;;;;;;2.00;0.60;;;;;;;11.56;nan;94305.00;4961447;28;20830;-69
2021/01/22 08:37:00;;;;;;;4.30;1.30;;;;;;;11.49;nan;94283.97;4962244;28;20562;-70
2021/01/22 08:39:27;;;;;;;3.73;0.87;;;;;;;11.93;nan;94292.47;4960816;28;20515;-69
2021/01/22 08:42:11;;;;;;;1.87;0.90;;;;;;;12.08;nan;94294.25;4962977;28;20512;-70
2021/01/22 08:44:51;;;;;;;6.30;1.03;;;;;;;12.30;nan;94285.81;4964847;28;21009;-70
2021/01/22 08:47:18;;;;;;;3.67;1.17;;;;;;;12.33;nan;94269.03;4955958;28;20480;-70
2021/01/22 08:49:55;;;;;;;8.03;1.13;;;;;;;12.30;nan;94278.00;4965177;28;21145;-70
2021/01/22 08:52:23;;;;;;;3.70;1.37;;;;;;;12.27;nan;94278.31;4967078;28;20899;-70
2021/01/22 08:54:54;;;;;;;5.13;1.33;;;;;;;12.26;nan;94266.25;4960757;28;20453;-70
2021/01/22 08:57:24;;;;;;;7.60;0.90;;;;;;;11.97;nan;94276.34;4973403;28;20958;-69
2021/01/22 08:59:53;;;;;;;2.27;0.70;;;;;;;11.71;nan;94275.59;4965827;28;20840;-70
2021/01/22 09:02:40;;;;;;;3.57;1.00;;;;;;;11.75;nan;94279.53;4957356;28;20592;-70
2021/01/22 09:05:11;;;;;;;6.90;1.50;;;;;;;11.48;nan;94279.72;4961657;28;20496;-73
2021/01/22 09:07:38;;;;;;;5.67;1.07;;;;;;;11.10;nan;94295.00;4965978;28;20927;-69
2021/01/22 09:10:06;;;;;;;1.57;0.70;;;;;;;11.16;nan;94287.41;4966131;28;20465;-69
2021/01/22 09:12:34;;;;;;;2.40;0.93;;;;;;;11.14;nan;94299.78;4968105;28;20979;-69
2021/01/22 09:15:04;;;;;;;10.73;1.10;;;;;;;10.83;nan;94301.19;4968332;28;20480;-69
2021/01/22 09:17:40;;;;;;;1.90;0.93;;;;;;;10.38;nan;94291.94;4963452;28;20457;-68
2021/01/22 09:20:09;;;;;;;1.17;0.60;;;;;;;10.41;nan;94305.47;4962268;28;20872;-70
2021/01/22 09:22:38;;;;;;;7.13;1.00;;;;;;;10.68;nan;94310.53;4960694;28;20835;-69
2021/01/22 09:25:07;;;;;;;5.50;0.70;;;;;;;10.44;nan;94320.75;4970489;28;20472;-70
2021/01/22 09:27:37;;;;;;;1.63;1.47;;;;;;;10.19;nan;94331.06;4962114;28;20526;-69
2021/01/22 09:30:06;;;;;;;2.47;0.90;;;;;;;10.39;nan;94324.78;4963044;28;20956;-70
2021/01/22 09:32:33;;;;;;;3.73;0.87;;;;;;;10.40;nan;94314.19;4957909;28;20576;-72
2021/01/22 09:35:00;;;;;;;2.60;0.90;;;;;;;9.99;nan;94304.38;4966938;28;20936;-70
2021/01/22 09:37:27;;;;;;;2.70;1.17;;;;;;;9.90;nan;94314.84;4958836;28;20456;-69
2021/01/22 09:39:54;;;;;;;5.33;0.90;;;;;;;9.82;nan;94318.16;4958419;28;20996;-70
2021/01/22 09:42:21;;;;;;;1.00;0.67;;;;;;;9.74;nan;94318.06;4961264;28;20944;-69
2021/01/22 09:44:55;;;;;;;2.00;0.60;;;;;;;9.74;nan;94315.47;4958712;28;21161;-69
2021/01/22 09:47:22;;;;;;;15.90;5.87;;;;;;;9.85;nan;94312.69;4955812;28;20836;-69
2021/01/22 09:49:49;;;;;;;1.17;0.83;;;;;;;10.42;nan;94319.25;4963294;28;20504;-70
2021/01/22 09:52:16;;;;;;;3.40;0.60;;;;;;;10.73;nan;94305.69;4961088;28;20481;-70
2021/01/22 09:54:45;;;;;;;2.20;0.90;;;;;;;10.62;nan;94308.53;4962502;28;20598;-70
2021/01/22 09:57:12;;;;;;;1.60;0.80;;;;;;;10.97;nan;94307.66;4962899;28;20714;-69
2021/01/22 09:59:39;;;;;;;5.63;1.13;;;;;;;11.31;nan;94309.28;4963861;28;20511;-72
2021/01/22 10:02:08;;;;;;;2.70;0.80;;;;;;;11.24;nan;94289.22;4958713;28;20754;-69
2021/01/22 10:04:35;;;;;;;4.07;1.13;;;;;;;11.12;nan;94287.88;4964039;28;20444;-69
2021/01/22 10:07:03;;;;;;;3.53;1.00;;;;;;;10.89;nan;94284.16;4961239;28;20484;-69
2021/01/22 10:09:30;;;;;;;2.03;1.00;;;;;;;10.85;nan;94288.88;4959652;28;20485;-73
2021/01/22 10:11:57;;;;;;;2.73;0.73;;;;;;;10.84;nan;94284.59;4959639;28;21089;-69
2021/01/22 10:14:24;;;;;;;5.50;1.13;;;;;;;10.87;nan;94286.91;4962472;28;20934;-70
2021/01/22 10:16:50;;;;;;;1.13;0.70;;;;;;;10.77;nan;94286.19;4958643;28;20839;-70
2021/01/22 10:19:19;;;;;;;4.10;1.00;;;;;;;10.98;nan;94289.25;4966740;28;20748;-70
2021/01/22 10:21:46;;;;;;;2.33;0.93;;;;;;;11.32;nan;94287.47;4960660;28;20584;-69
2021/01/22 10:24:12;;;;;;;3.67;0.70;;;;;;;11.64;nan;94287.63;4960006;28;20508;-69
2021/01/22 10:26:39;;;;;;;6.00;0.80;;;;;;;12.17;nan;94272.47;4957140;28;20555;-69
2021/01/22 10:29:07;;;;;;;1.93;0.83;;;;;;;12.80;nan;94278.63;4964619;28;20899;-70
2021/01/22 10:31:33;;;;;;;0.80;0.70;;;;;;;13.54;nan;94269.50;4967431;28;20822;-71
2021/01/22 10:34:01;;;;;;;4.97;1.00;;;;;;;13.92;nan;94273.09;4966796;28;20537;-69
2021/01/22 10:36:31;;;;;;;3.27;1.57;;;;;;;14.55;nan;94271.88;4966200;28;20955;-71
2021/01/22 10:38:58;;;;;;;2.10;0.90;;;;;;;14.53;nan;94263.34;4962452;28;20480;-72
2021/01/22 10:41:25;;;;;;;2.93;0.80;;;;;;;14.26;nan;94270.91;4960932;28;20530;-72
2021/01/22 10:43:54;;;;;;;2.10;1.07;;;;;;;14.00;nan;94275.66;4957819;28;20912;-72
2021/01/22 10:46:25;;;;;;;1.60;1.00;;;;;;;13.99;nan;94281.84;4962371;28;20889;-71
2021/01/22 10:49:01;;;;;;;2.30;0.80;;;;;;;14.41;nan;94284.88;4960354;28;20979;-72
2021/01/22 10:51:32;;;;;;;3.00;0.83;;;;;;;14.93;nan;94276.13;4954804;28;20839;-72
2021/01/22 10:53:59;;;;;;;3.37;0.93;;;;;;;15.03;nan;94270.63;4959162;28;21129;-72
2021/01/22 10:56:28;;;;;;;2.70;1.10;;;;;;;13.96;nan;94271.75;4962252;28;20512;-72
2021/01/22 10:58:56;;;;;;;2.23;0.87;;;;;;;13.77;nan;94274.78;4959353;28;20765;-73
2021/01/22 11:01:23;;;;;;;2.23;0.90;;;;;;;14.01;nan;94258.97;4964398;28;20499;-72
2021/01/22 11:03:50;;;;;;;4.27;1.07;;;;;;;13.99;nan;94268.75;4964147;28;20868;-72
2021/01/22 11:06:16;;;;;;;5.60;0.80;;;;;;;14.29;nan;94275.84;4960532;28;20760;-72
2021/01/22 11:08:52;;;;;;;2.17;0.80;;;;;;;14.36;nan;94250.59;4957933;28;20460;-73
2021/01/22 11:11:18;;;;;;;1.80;0.93;;;;;;;13.93;nan;94259.03;4960926;28;20515;-72
2021/01/22 11:13:45;;;;;;;2.10;0.90;;;;;;;13.63;nan;94257.22;4960835;28;20944;-72
2021/01/22 11:16:12;;;;;;;1.67;0.70;;;;;;;13.22;nan;94255.72;4962880;28;20536;-72
2021/01/22 11:18:39;;;;;;;2.50;0.70;;;;;;;12.97;nan;94257.59;4962540;28;20487;-73
2021/01/22 11:21:06;;;;;;;1.97;1.00;;;;;;;12.85;nan;94255.47;4957742;28;20481;-72
2021/01/22 11:23:34;;;;;;;5.90;0.80;;;;;;;12.82;nan;94251.38;4958260;28;20532;-72
2021/01/22 11:26:02;;;;;;;1.40;0.90;;;;;;;12.81;nan;94244.53;4957710;28;20488;-72
2021/01/22 11:28:30;;;;;;;2.43;0.90;;;;;;;12.97;nan;94243.75;4953051;28;20928;-73
2021/01/22 11:30:58;;;;;;;1.63;0.60;;;;;;;12.99;nan;94231.31;4952557;28;20505;-72
2021/01/22 11:33:25;;;;;;;0.80;0.70;;;;;;;12.99;nan;94236.53;4954254;28;21108;-72
2021/01/22 11:35:52;;;;;;;2.83;0.80;;;;;;;12.86;nan;94236.22;4958535;28;20557;-72
2021/01/22 11:38:19;;;;;;;3.63;0.73;;;;;;;12.80;nan;94236.88;4961950;28;20449;-72
2021/01/22 11:40:46;;;;;;;3.10;0.70;;;;;;;12.61;nan;94234.63;4962435;28;20560;-72
2021/01/22 11:43:13;;;;;;;2.73;0.90;;;;;;;12.46;nan;94238.06;4959738;28;20883;-72
2021/01/22 11:45:40;;;;;;;2.77;1.10;;;;;;;12.31;nan;94230.09;4964369;28;20522;-73
2021/01/22 11:48:08;;;;;;;1.93;0.70;;;;;;;12.24;nan;94220.44;4958687;28;20532;-72
2021/01/22 11:50:35;;;;;;;1.93;0.80;;;;;;;12.25;nan;94233.34;4963118;28;20871;-72
2021/01/22 11:53:03;;;;;;;1.33;1.07;;;;;;;12.28;nan;94217.34;4962061;28;20532;-73
2021/01/22 11:55:38;;;;;;;4.53;0.90;;;;;;;12.23;nan;94211.81;4961416;28;20849;-72
2021/01/22 11:58:05;;;;;;;5.90;1.13;;;;;;;12.21;nan;94212.97;4960612;28;20547;-72
2021/01/22 12:00:33;;;;;;;3.13;1.40;;;;;;;12.22;nan;94210.16;4957862;28;20471;-72
2021/01/22 12:03:00;;;;;;;1.30;0.70;;;;;;;12.17;nan;94202.03;4966537;28;20960;-73
2021/01/22 12:05:28;;;;;;;5.80;1.80;;;;;;;12.15;nan;94201.38;4957117;28;20947;-72
2021/01/22 12:07:55;;;;;;;1.80;1.00;;;;;;;12.18;nan;94206.28;4964982;28;20945;-72